Date,TemperatureHighF,TemperatureAvgF,TemperatureLowF,DewpointHighF,DewpointAvgF,DewpointLowF,HumidityHigh,HumidityAvg,HumidityLow,PressureMaxIn,PressureMinIn,WindSpeedMaxMPH,WindSpeedAvgMPH,GustSpeedMaxMPH,PrecipitationSumIn
2013-2-1,27.9,24.6,22.9,21.3,18.4,15.6,89,77,69,30.27,30.15,22,10,30,0.19
2013-2-2,36.4,26.8,19.0,15.5,13.0,8.6,75,57,40,30.45,30.27,32,16,37,0.00
2013-2-3,38.8,27.0,13.9,12.3,8.5,5.0,74,47,31,30.36,30.05,23,7,23,0.00
2013-2-4,36.7,27.0,17.3,16.3,11.3,4.8,63,52,39,30.11,29.94,16,9,28,0.00
2013-2-5,41.9,32.2,21.1,24.5,17.8,12.2,68,56,45,30.11,29.83,17,8,26,0.00
2013-2-6,39.0,31.5,21.6,25.3,17.7,12.0,72,57,42,30.08,29.75,15,8,28,0.00
2013-2-7,36.4,24.8,7.7,12.8,4.9,-0.8,79,46,24,30.27,30.08,15,6,18,0.00
2013-2-8,42.4,28.5,10.9,14.2,7.0,-1.3,63,41,27,30.13,29.76,10,4,11,0.00
2013-2-9,27.2,20.9,11.3,20.5,16.0,6.9,88,81,55,29.78,29.57,5,1,6,0.38
2013-2-10,20.0,11.5,-2.5,10.9,5.5,-7.2,84,77,61,30.29,29.75,7,1,8,0.00
2013-2-11,17.5,5.8,-6.4,9.5,-2.8,-11.7,82,68,45,30.43,30.29,20,3,20,0.00
2013-2-12,28.0,15.6,1.9,8.0,1.8,-9.2,68,54,41,30.43,30.30,27,7,33,0.00
2013-2-13,27.6,22.0,15.8,15.6,12.3,6.8,76,66,58,30.32,30.13,37,17,49,0.00
2013-2-14,28.0,19.0,11.3,15.8,11.2,7.0,83,72,56,30.41,30.11,23,9,34,0.00
2013-2-15,25.4,19.7,8.1,11.7,8.3,3.5,83,62,46,30.56,30.40,25,9,31,0.00
2013-2-16,37.9,29.0,20.2,16.6,12.0,9.3,67,50,38,30.45,30.02,24,11,29,0.00
2013-2-17,38.5,29.2,17.0,16.5,9.2,3.4,68,44,30,30.00,29.63,20,10,27,0.00
2013-2-18,20.0,16.7,12.0,9.1,4.7,-1.0,72,59,45,30.26,29.82,16,7,20,0.00
2013-2-19,39.8,23.8,12.6,9.7,1.8,-4.8,59,40,20,30.26,29.86,19,5,20,0.00
2013-2-20,40.8,23.8,13.9,17.3,9.6,2.2,88,57,27,29.85,29.65,12,2,13,0.00
2013-2-21,19.4,15.1,5.9,14.6,10.9,1.5,90,83,69,30.07,29.71,10,2,12,0.04
2013-2-22,23.0,16.3,7.0,8.4,4.3,1.4,82,59,46,30.17,29.98,38,10,51,0.00
2013-2-23,30.7,21.3,14.6,17.0,10.7,4.1,85,64,50,30.00,29.78,41,13,60,0.00
2013-2-24,24.2,15.2,0.8,16.7,7.5,-3.8,85,72,56,30.31,29.84,16,5,20,0.06
2013-2-25,33.9,16.9,-0.9,15.9,4.3,-5.9,89,59,34,30.36,30.07,18,4,21,0.00
2013-2-26,21.9,17.6,7.3,13.2,7.0,0.7,75,63,56,30.37,29.92,22,7,24,0.00
2013-2-27,24.0,13.9,0.6,5.7,1.3,-4.6,81,58,38,30.54,30.37,29,11,40,0.00
2013-2-28,27.6,20.6,9.5,13.8,7.6,0.1,70,57,38,30.53,30.38,34,17,44,0.00